sensor_id;sensor_type;location;lat;lon;timestamp;temperature;humidity
78514;SHT31;67814;51.976;5.810;2023-03-03T00:01:40;4.6;70.3
78514;SHT31;67814;51.976;5.810;2023-03-03T00:04:10;4.6;70.2
78514;SHT31;67814;51.976;5.810;2023-03-03T00:06:42;4.6;70.2
78514;SHT31;67814;51.976;5.810;2023-03-03T00:09:12;4.6;70.6
78514;SHT31;67814;51.976;5.810;2023-03-03T00:11:42;4.6;70.6
78514;SHT31;67814;51.976;5.810;2023-03-03T00:14:19;4.6;70.6
78514;SHT31;67814;51.976;5.810;2023-03-03T00:16:51;4.6;70.3
78514;SHT31;67814;51.976;5.810;2023-03-03T00:19:20;4.6;70.1
78514;SHT31;67814;51.976;5.810;2023-03-03T00:21:52;4.6;69.9
78514;SHT31;67814;51.976;5.810;2023-03-03T00:24:34;4.5;70.0
78514;SHT31;67814;51.976;5.810;2023-03-03T00:27:21;4.5;70.0
78514;SHT31;67814;51.976;5.810;2023-03-03T00:29:52;4.5;69.9
78514;SHT31;67814;51.976;5.810;2023-03-03T00:32:26;4.6;69.6
78514;SHT31;67814;51.976;5.810;2023-03-03T00:35:18;4.6;69.4
78514;SHT31;67814;51.976;5.810;2023-03-03T00:37:39;4.6;69.3
78514;SHT31;67814;51.976;5.810;2023-03-03T00:40:19;4.6;69.2
78514;SHT31;67814;51.976;5.810;2023-03-03T00:42:53;4.6;68.8
78514;SHT31;67814;51.976;5.810;2023-03-03T00:45:28;4.6;69.0
78514;SHT31;67814;51.976;5.810;2023-03-03T00:48:18;4.6;68.9
78514;SHT31;67814;51.976;5.810;2023-03-03T00:50:46;4.5;69.2
78514;SHT31;67814;51.976;5.810;2023-03-03T00:53:18;4.5;69.4
78514;SHT31;67814;51.976;5.810;2023-03-03T00:55:49;4.5;69.4
78514;SHT31;67814;51.976;5.810;2023-03-03T00:58:21;4.5;69.4
78514;SHT31;67814;51.976;5.810;2023-03-03T01:00:53;4.5;69.5
78514;SHT31;67814;51.976;5.810;2023-03-03T01:03:25;4.5;69.6
78514;SHT31;67814;51.976;5.810;2023-03-03T01:05:57;4.5;69.4
78514;SHT31;67814;51.976;5.810;2023-03-03T01:08:27;4.5;69.4
78514;SHT31;67814;51.976;5.810;2023-03-03T01:11:00;4.4;69.2
78514;SHT31;67814;51.976;5.810;2023-03-03T01:13:33;4.4;69.3
78514;SHT31;67814;51.976;5.810;2023-03-03T01:16:07;4.4;69.3
78514;SHT31;67814;51.976;5.810;2023-03-03T01:18:37;4.4;69.3
78514;SHT31;67814;51.976;5.810;2023-03-03T01:21:08;4.4;69.2
78514;SHT31;67814;51.976;5.810;2023-03-03T01:23:38;4.4;69.0
78514;SHT31;67814;51.976;5.810;2023-03-03T01:26:08;4.4;68.9
78514;SHT31;67814;51.976;5.810;2023-03-03T01:28:37;4.4;68.8
78514;SHT31;67814;51.976;5.810;2023-03-03T01:31:07;4.4;68.9
78514;SHT31;67814;51.976;5.810;2023-03-03T01:33:38;4.4;69.2
78514;SHT31;67814;51.976;5.810;2023-03-03T01:36:08;4.4;69.1
78514;SHT31;67814;51.976;5.810;2023-03-03T01:38:38;4.5;68.8
78514;SHT31;67814;51.976;5.810;2023-03-03T01:41:08;4.5;68.7
78514;SHT31;67814;51.976;5.810;2023-03-03T01:43:45;4.5;68.5
78514;SHT31;67814;51.976;5.810;2023-03-03T01:46:53;4.5;68.4
78514;SHT31;67814;51.976;5.810;2023-03-03T01:49:27;4.5;68.6
78514;SHT31;67814;51.976;5.810;2023-03-03T01:52:00;4.5;68.9
78514;SHT31;67814;51.976;5.810;2023-03-03T01:54:38;4.5;68.8
78514;SHT31;67814;51.976;5.810;2023-03-03T01:57:14;4.5;68.7
78514;SHT31;67814;51.976;5.810;2023-03-03T01:59:47;4.5;68.3
78514;SHT31;67814;51.976;5.810;2023-03-03T02:02:18;4.5;67.8
78514;SHT31;67814;51.976;5.810;2023-03-03T02:04:48;4.5;67.9
78514;SHT31;67814;51.976;5.810;2023-03-03T02:07:19;4.5;68.0
78514;SHT31;67814;51.976;5.810;2023-03-03T02:09:55;4.5;68.0
78514;SHT31;67814;51.976;5.810;2023-03-03T02:12:32;4.5;68.1
78514;SHT31;67814;51.976;5.810;2023-03-03T02:15:16;4.5;68.3
78514;SHT31;67814;51.976;5.810;2023-03-03T02:17:47;4.4;68.4
78514;SHT31;67814;51.976;5.810;2023-03-03T02:20:30;4.4;68.5
78514;SHT31;67814;51.976;5.810;2023-03-03T02:23:06;4.4;68.6
78514;SHT31;67814;51.976;5.810;2023-03-03T02:25:42;4.4;68.6
78514;SHT31;67814;51.976;5.810;2023-03-03T02:28:14;4.4;68.7
78514;SHT31;67814;51.976;5.810;2023-03-03T02:30:44;4.4;68.9
78514;SHT31;67814;51.976;5.810;2023-03-03T02:33:15;4.4;68.8
78514;SHT31;67814;51.976;5.810;2023-03-03T02:35:45;4.4;68.9
78514;SHT31;67814;51.976;5.810;2023-03-03T02:38:21;4.4;68.4
78514;SHT31;67814;51.976;5.810;2023-03-03T02:40:59;4.3;68.5
78514;SHT31;67814;51.976;5.810;2023-03-03T02:43:38;4.3;68.9
78514;SHT31;67814;51.976;5.810;2023-03-03T02:46:09;4.3;68.9
78514;SHT31;67814;51.976;5.810;2023-03-03T02:48:39;4.3;68.9
78514;SHT31;67814;51.976;5.810;2023-03-03T02:51:09;4.3;69.3
78514;SHT31;67814;51.976;5.810;2023-03-03T02:53:40;4.3;69.1
78514;SHT31;67814;51.976;5.810;2023-03-03T02:56:09;4.3;69.1
78514;SHT31;67814;51.976;5.810;2023-03-03T02:58:39;4.4;68.9
78514;SHT31;67814;51.976;5.810;2023-03-03T03:01:09;4.4;68.8
78514;SHT31;67814;51.976;5.810;2023-03-03T03:03:39;4.4;68.7
78514;SHT31;67814;51.976;5.810;2023-03-03T03:06:09;4.4;68.5
78514;SHT31;67814;51.976;5.810;2023-03-03T03:08:41;4.4;68.5
78514;SHT31;67814;51.976;5.810;2023-03-03T03:11:11;4.4;68.5
78514;SHT31;67814;51.976;5.810;2023-03-03T03:13:40;4.5;68.6
78514;SHT31;67814;51.976;5.810;2023-03-03T03:16:11;4.5;68.5
78514;SHT31;67814;51.976;5.810;2023-03-03T03:18:40;4.5;68.7
78514;SHT31;67814;51.976;5.810;2023-03-03T03:21:12;4.5;68.6
78514;SHT31;67814;51.976;5.810;2023-03-03T03:23:42;4.5;68.9
78514;SHT31;67814;51.976;5.810;2023-03-03T03:26:12;4.5;68.8
78514;SHT31;67814;51.976;5.810;2023-03-03T03:28:42;4.5;68.8
78514;SHT31;67814;51.976;5.810;2023-03-03T03:31:12;4.5;68.6
78514;SHT31;67814;51.976;5.810;2023-03-03T03:33:44;4.5;68.7
78514;SHT31;67814;51.976;5.810;2023-03-03T03:36:15;4.5;68.7
78514;SHT31;67814;51.976;5.810;2023-03-03T03:38:45;4.5;68.6
78514;SHT31;67814;51.976;5.810;2023-03-03T03:41:15;4.5;68.7
78514;SHT31;67814;51.976;5.810;2023-03-03T03:43:44;4.5;68.8
78514;SHT31;67814;51.976;5.810;2023-03-03T03:46:14;4.4;69.0
78514;SHT31;67814;51.976;5.810;2023-03-03T03:48:44;4.4;68.9
78514;SHT31;67814;51.976;5.810;2023-03-03T03:51:13;4.4;68.9
78514;SHT31;67814;51.976;5.810;2023-03-03T03:53:43;4.4;68.8
78514;SHT31;67814;51.976;5.810;2023-03-03T03:56:13;4.4;68.7
78514;SHT31;67814;51.976;5.810;2023-03-03T03:58:42;4.4;68.8
78514;SHT31;67814;51.976;5.810;2023-03-03T04:01:12;4.4;68.8
78514;SHT31;67814;51.976;5.810;2023-03-03T04:03:42;4.3;68.8
78514;SHT31;67814;51.976;5.810;2023-03-03T04:06:11;4.3;68.8
78514;SHT31;67814;51.976;5.810;2023-03-03T04:08:41;4.3;69.0
78514;SHT31;67814;51.976;5.810;2023-03-03T04:11:10;4.3;69.1
78514;SHT31;67814;51.976;5.810;2023-03-03T04:13:40;4.3;69.3
78514;SHT31;67814;51.976;5.810;2023-03-03T04:16:09;4.3;69.1
78514;SHT31;67814;51.976;5.810;2023-03-03T04:18:40;4.3;69.2
78514;SHT31;67814;51.976;5.810;2023-03-03T04:21:13;4.3;69.1
78514;SHT31;67814;51.976;5.810;2023-03-03T04:23:43;4.4;69.0
78514;SHT31;67814;51.976;5.810;2023-03-03T04:26:13;4.4;69.1
78514;SHT31;67814;51.976;5.810;2023-03-03T04:28:43;4.4;69.0
78514;SHT31;67814;51.976;5.810;2023-03-03T04:31:13;4.4;68.9
78514;SHT31;67814;51.976;5.810;2023-03-03T04:33:42;4.4;68.6
78514;SHT31;67814;51.976;5.810;2023-03-03T04:36:12;4.4;68.4
78514;SHT31;67814;51.976;5.810;2023-03-03T04:38:44;4.4;68.3
78514;SHT31;67814;51.976;5.810;2023-03-03T04:41:14;4.4;68.6
78514;SHT31;67814;51.976;5.810;2023-03-03T04:43:44;4.4;68.8
78514;SHT31;67814;51.976;5.810;2023-03-03T04:46:13;4.4;69.1
78514;SHT31;67814;51.976;5.810;2023-03-03T04:48:43;4.4;68.8
78514;SHT31;67814;51.976;5.810;2023-03-03T04:51:12;4.4;69.0
78514;SHT31;67814;51.976;5.810;2023-03-03T04:53:45;4.4;69.0
78514;SHT31;67814;51.976;5.810;2023-03-03T04:56:14;4.5;68.9
78514;SHT31;67814;51.976;5.810;2023-03-03T04:58:44;4.5;68.9
78514;SHT31;67814;51.976;5.810;2023-03-03T05:01:13;4.5;68.8
78514;SHT31;67814;51.976;5.810;2023-03-03T05:03:43;4.6;68.7
78514;SHT31;67814;51.976;5.810;2023-03-03T05:06:13;4.6;68.8
78514;SHT31;67814;51.976;5.810;2023-03-03T05:08:45;4.6;68.8
78514;SHT31;67814;51.976;5.810;2023-03-03T05:11:15;4.6;68.8
78514;SHT31;67814;51.976;5.810;2023-03-03T05:13:45;4.6;68.7
78514;SHT31;67814;51.976;5.810;2023-03-03T05:16:14;4.6;68.6
78514;SHT31;67814;51.976;5.810;2023-03-03T05:18:46;4.6;68.6
78514;SHT31;67814;51.976;5.810;2023-03-03T05:21:16;4.6;68.4
78514;SHT31;67814;51.976;5.810;2023-03-03T05:23:45;4.6;68.4
78514;SHT31;67814;51.976;5.810;2023-03-03T05:26:15;4.6;68.2
78514;SHT31;67814;51.976;5.810;2023-03-03T05:28:44;4.5;68.5
78514;SHT31;67814;51.976;5.810;2023-03-03T05:31:14;4.5;68.6
78514;SHT31;67814;51.976;5.810;2023-03-03T05:33:43;4.4;68.8
78514;SHT31;67814;51.976;5.810;2023-03-03T05:36:13;4.4;69.2
78514;SHT31;67814;51.976;5.810;2023-03-03T05:38:43;4.4;69.2
78514;SHT31;67814;51.976;5.810;2023-03-03T05:41:12;4.4;69.2
78514;SHT31;67814;51.976;5.810;2023-03-03T05:43:42;4.4;69.1
78514;SHT31;67814;51.976;5.810;2023-03-03T05:46:14;4.4;69.1
78514;SHT31;67814;51.976;5.810;2023-03-03T05:48:44;4.4;69.0
78514;SHT31;67814;51.976;5.810;2023-03-03T05:51:15;4.4;69.1
78514;SHT31;67814;51.976;5.810;2023-03-03T05:53:45;4.4;69.1
78514;SHT31;67814;51.976;5.810;2023-03-03T05:56:15;4.4;69.3
78514;SHT31;67814;51.976;5.810;2023-03-03T05:58:44;4.3;69.6
78514;SHT31;67814;51.976;5.810;2023-03-03T06:01:14;4.4;69.7
78514;SHT31;67814;51.976;5.810;2023-03-03T06:03:44;4.4;69.6
78514;SHT31;67814;51.976;5.810;2023-03-03T06:06:13;4.4;69.4
78514;SHT31;67814;51.976;5.810;2023-03-03T06:08:45;4.5;69.2
78514;SHT31;67814;51.976;5.810;2023-03-03T06:11:15;4.5;69.2
78514;SHT31;67814;51.976;5.810;2023-03-03T06:13:45;4.5;69.0
78514;SHT31;67814;51.976;5.810;2023-03-03T06:16:16;4.5;69.1
78514;SHT31;67814;51.976;5.810;2023-03-03T06:18:45;4.5;69.2
78514;SHT31;67814;51.976;5.810;2023-03-03T06:21:15;4.5;69.2
78514;SHT31;67814;51.976;5.810;2023-03-03T06:23:45;4.5;69.1
78514;SHT31;67814;51.976;5.810;2023-03-03T06:26:14;4.5;69.4
78514;SHT31;67814;51.976;5.810;2023-03-03T06:28:44;4.6;69.2
78514;SHT31;67814;51.976;5.810;2023-03-03T06:31:14;4.6;69.1
78514;SHT31;67814;51.976;5.810;2023-03-03T06:33:44;4.6;69.2
78514;SHT31;67814;51.976;5.810;2023-03-03T06:36:13;4.6;69.2
78514;SHT31;67814;51.976;5.810;2023-03-03T06:38:43;4.6;69.2
78514;SHT31;67814;51.976;5.810;2023-03-03T06:41:13;4.6;69.4
78514;SHT31;67814;51.976;5.810;2023-03-03T06:43:44;4.6;69.5
78514;SHT31;67814;51.976;5.810;2023-03-03T06:46:14;4.6;69.5
78514;SHT31;67814;51.976;5.810;2023-03-03T06:48:44;4.6;69.6
78514;SHT31;67814;51.976;5.810;2023-03-03T06:51:21;4.6;69.8
78514;SHT31;67814;51.976;5.810;2023-03-03T06:53:55;4.6;69.7
78514;SHT31;67814;51.976;5.810;2023-03-03T06:56:26;4.6;69.6
78514;SHT31;67814;51.976;5.810;2023-03-03T06:58:58;4.7;69.3
78514;SHT31;67814;51.976;5.810;2023-03-03T07:01:35;4.7;69.1
78514;SHT31;67814;51.976;5.810;2023-03-03T07:04:10;4.7;69.2
78514;SHT31;67814;51.976;5.810;2023-03-03T07:06:45;4.7;69.4
78514;SHT31;67814;51.976;5.810;2023-03-03T07:09:20;4.8;69.2
78514;SHT31;67814;51.976;5.810;2023-03-03T07:11:54;4.8;68.8
78514;SHT31;67814;51.976;5.810;2023-03-03T07:14:25;4.8;68.8
78514;SHT31;67814;51.976;5.810;2023-03-03T07:16:58;4.8;68.9
78514;SHT31;67814;51.976;5.810;2023-03-03T07:19:33;4.8;69.0
78514;SHT31;67814;51.976;5.810;2023-03-03T07:22:15;4.8;69.2
78514;SHT31;67814;51.976;5.810;2023-03-03T07:24:48;4.8;69.2
78514;SHT31;67814;51.976;5.810;2023-03-03T07:27:23;4.8;69.4
78514;SHT31;67814;51.976;5.810;2023-03-03T07:29:54;4.8;69.7
78514;SHT31;67814;51.976;5.810;2023-03-03T07:32:36;4.8;70.0
78514;SHT31;67814;51.976;5.810;2023-03-03T07:35:28;4.8;70.1
78514;SHT31;67814;51.976;5.810;2023-03-03T07:38:01;4.7;70.4
78514;SHT31;67814;51.976;5.810;2023-03-03T07:40:36;4.7;70.6
78514;SHT31;67814;51.976;5.810;2023-03-03T07:43:32;4.7;71.1
78514;SHT31;67814;51.976;5.810;2023-03-03T07:46:16;4.7;71.0
78514;SHT31;67814;51.976;5.810;2023-03-03T07:48:49;4.8;70.9
78514;SHT31;67814;51.976;5.810;2023-03-03T07:51:23;4.8;70.8
78514;SHT31;67814;51.976;5.810;2023-03-03T07:54:11;4.9;70.6
78514;SHT31;67814;51.976;5.810;2023-03-03T07:56:36;4.9;70.9
78514;SHT31;67814;51.976;5.810;2023-03-03T07:59:17;4.9;70.6
78514;SHT31;67814;51.976;5.810;2023-03-03T08:01:50;5.0;70.4
78514;SHT31;67814;51.976;5.810;2023-03-03T08:04:25;5.0;70.5
78514;SHT31;67814;51.976;5.810;2023-03-03T08:06:57;5.0;70.7
78514;SHT31;67814;51.976;5.810;2023-03-03T08:09:37;5.1;70.2
78514;SHT31;67814;51.976;5.810;2023-03-03T08:12:21;5.1;70.1
78514;SHT31;67814;51.976;5.810;2023-03-03T08:14:54;5.1;69.7
78514;SHT31;67814;51.976;5.810;2023-03-03T08:17:33;5.1;69.8
78514;SHT31;67814;51.976;5.810;2023-03-03T08:23:00;5.2;69.7
78514;SHT31;67814;51.976;5.810;2023-03-03T08:25:30;5.2;70.1
78514;SHT31;67814;51.976;5.810;2023-03-03T08:28:00;5.2;70.1
78514;SHT31;67814;51.976;5.810;2023-03-03T08:30:29;5.2;69.3
78514;SHT31;67814;51.976;5.810;2023-03-03T08:32:59;5.3;69.2
78514;SHT31;67814;51.976;5.810;2023-03-03T08:35:29;5.3;69.3
78514;SHT31;67814;51.976;5.810;2023-03-03T08:37:59;5.3;70.2
78514;SHT31;67814;51.976;5.810;2023-03-03T08:40:29;5.4;69.6
78514;SHT31;67814;51.976;5.810;2023-03-03T08:42:58;5.4;68.5
78514;SHT31;67814;51.976;5.810;2023-03-03T08:45:30;5.5;68.4
78514;SHT31;67814;51.976;5.810;2023-03-03T08:48:00;5.5;68.3
78514;SHT31;67814;51.976;5.810;2023-03-03T08:50:30;5.6;68.0
78514;SHT31;67814;51.976;5.810;2023-03-03T08:53:02;5.6;67.1
78514;SHT31;67814;51.976;5.810;2023-03-03T08:55:34;5.6;66.8
78514;SHT31;67814;51.976;5.810;2023-03-03T08:58:03;5.6;66.6
78514;SHT31;67814;51.976;5.810;2023-03-03T09:00:33;5.7;66.8
78514;SHT31;67814;51.976;5.810;2023-03-03T09:03:04;5.7;66.5
78514;SHT31;67814;51.976;5.810;2023-03-03T09:05:35;5.7;66.9
78514;SHT31;67814;51.976;5.810;2023-03-03T09:08:07;5.7;66.8
78514;SHT31;67814;51.976;5.810;2023-03-03T09:10:37;5.8;66.7
78514;SHT31;67814;51.976;5.810;2023-03-03T09:13:13;5.8;66.4
78514;SHT31;67814;51.976;5.810;2023-03-03T09:15:43;5.8;66.0
78514;SHT31;67814;51.976;5.810;2023-03-03T09:18:18;5.9;65.8
78514;SHT31;67814;51.976;5.810;2023-03-03T09:20:50;5.9;65.8
78514;SHT31;67814;51.976;5.810;2023-03-03T09:23:31;5.9;65.2
78514;SHT31;67814;51.976;5.810;2023-03-03T09:27:55;5.9;64.4
78514;SHT31;67814;51.976;5.810;2023-03-03T09:30:36;5.9;64.8
78514;SHT31;67814;51.976;5.810;2023-03-03T09:33:23;5.9;64.7
78514;SHT31;67814;51.976;5.810;2023-03-03T09:35:57;6.0;64.7
78514;SHT31;67814;51.976;5.810;2023-03-03T09:38:32;6.0;64.2
78514;SHT31;67814;51.976;5.810;2023-03-03T09:46:09;6.2;63.3
78514;SHT31;67814;51.976;5.810;2023-03-03T09:48:53;6.2;63.1
78514;SHT31;67814;51.976;5.810;2023-03-03T09:51:49;6.3;63.8
78514;SHT31;67814;51.976;5.810;2023-03-03T09:54:34;6.4;63.4
78514;SHT31;67814;51.976;5.810;2023-03-03T09:57:12;6.5;63.5
78514;SHT31;67814;51.976;5.810;2023-03-03T10:00:06;6.6;63.1
78514;SHT31;67814;51.976;5.810;2023-03-03T10:02:52;6.7;63.2
78514;SHT31;67814;51.976;5.810;2023-03-03T10:05:36;6.9;61.6
78514;SHT31;67814;51.976;5.810;2023-03-03T10:09:42;7.0;61.3
78514;SHT31;67814;51.976;5.810;2023-03-03T10:12:19;7.1;60.2
78514;SHT31;67814;51.976;5.810;2023-03-03T10:15:16;7.2;60.0
78514;SHT31;67814;51.976;5.810;2023-03-03T10:17:52;7.2;59.4
78514;SHT31;67814;51.976;5.810;2023-03-03T10:21:01;7.2;59.1
78514;SHT31;67814;51.976;5.810;2023-03-03T10:23:55;7.2;59.1
78514;SHT31;67814;51.976;5.810;2023-03-03T10:26:41;7.2;59.2
78514;SHT31;67814;51.976;5.810;2023-03-03T10:29:24;7.3;59.9
78514;SHT31;67814;51.976;5.810;2023-03-03T10:32:11;7.3;59.6
78514;SHT31;67814;51.976;5.810;2023-03-03T10:34:57;7.3;58.5
78514;SHT31;67814;51.976;5.810;2023-03-03T10:37:45;7.3;58.1
78514;SHT31;67814;51.976;5.810;2023-03-03T10:40:19;7.3;58.1
78514;SHT31;67814;51.976;5.810;2023-03-03T10:43:08;7.4;57.9
78514;SHT31;67814;51.976;5.810;2023-03-03T10:45:58;7.4;57.9
78514;SHT31;67814;51.976;5.810;2023-03-03T10:48:56;7.4;58.1
78514;SHT31;67814;51.976;5.810;2023-03-03T10:51:38;7.4;58.3
78514;SHT31;67814;51.976;5.810;2023-03-03T10:54:25;7.4;58.8
78514;SHT31;67814;51.976;5.810;2023-03-03T10:57:06;7.5;58.8
78514;SHT31;67814;51.976;5.810;2023-03-03T10:59:52;7.6;58.9
78514;SHT31;67814;51.976;5.810;2023-03-03T11:02:32;7.7;58.5
78514;SHT31;67814;51.976;5.810;2023-03-03T11:05:18;7.9;57.3
78514;SHT31;67814;51.976;5.810;2023-03-03T11:07:59;8.0;57.4
78514;SHT31;67814;51.976;5.810;2023-03-03T11:10:42;8.1;56.5
78514;SHT31;67814;51.976;5.810;2023-03-03T11:13:23;8.3;56.2
78514;SHT31;67814;51.976;5.810;2023-03-03T11:16:16;8.4;56.4
78514;SHT31;67814;51.976;5.810;2023-03-03T11:18:56;8.5;56.0
78514;SHT31;67814;51.976;5.810;2023-03-03T11:21:36;8.7;55.3
78514;SHT31;67814;51.976;5.810;2023-03-03T11:24:32;8.8;54.8
78514;SHT31;67814;51.976;5.810;2023-03-03T11:27:57;8.9;54.3
78514;SHT31;67814;51.976;5.810;2023-03-03T11:30:39;8.9;54.3
78514;SHT31;67814;51.976;5.810;2023-03-03T11:33:21;9.0;53.3
78514;SHT31;67814;51.976;5.810;2023-03-03T11:36:06;9.0;53.3
78514;SHT31;67814;51.976;5.810;2023-03-03T11:38:48;9.0;53.1
78514;SHT31;67814;51.976;5.810;2023-03-03T11:41:33;9.0;53.2
78514;SHT31;67814;51.976;5.810;2023-03-03T11:44:16;9.0;53.5
78514;SHT31;67814;51.976;5.810;2023-03-03T11:46:49;9.0;52.3
78514;SHT31;67814;51.976;5.810;2023-03-03T11:49:25;9.1;51.2
78514;SHT31;67814;51.976;5.810;2023-03-03T11:52:04;9.1;51.4
78514;SHT31;67814;51.976;5.810;2023-03-03T11:54:45;9.1;51.0
78514;SHT31;67814;51.976;5.810;2023-03-03T11:57:20;9.1;51.8
78514;SHT31;67814;51.976;5.810;2023-03-03T11:59:59;9.2;52.3
78514;SHT31;67814;51.976;5.810;2023-03-03T12:02:57;9.2;52.1
78514;SHT31;67814;51.976;5.810;2023-03-03T12:05:43;9.3;51.4
78514;SHT31;67814;51.976;5.810;2023-03-03T12:08:27;9.3;51.6
78514;SHT31;67814;51.976;5.810;2023-03-03T12:11:04;9.3;51.5
78514;SHT31;67814;51.976;5.810;2023-03-03T12:13:48;9.3;51.1
78514;SHT31;67814;51.976;5.810;2023-03-03T12:16:25;9.3;50.7
78514;SHT31;67814;51.976;5.810;2023-03-03T12:19:06;9.3;51.0
78514;SHT31;67814;51.976;5.810;2023-03-03T12:21:52;9.4;52.0
78514;SHT31;67814;51.976;5.810;2023-03-03T12:24:37;9.4;51.0
78514;SHT31;67814;51.976;5.810;2023-03-03T12:27:20;9.5;50.8
78514;SHT31;67814;51.976;5.810;2023-03-03T12:30:01;9.5;50.1
78514;SHT31;67814;51.976;5.810;2023-03-03T12:32:49;9.6;49.1
78514;SHT31;67814;51.976;5.810;2023-03-03T12:35:31;9.6;48.7
78514;SHT31;67814;51.976;5.810;2023-03-03T12:38:11;9.6;47.9
78514;SHT31;67814;51.976;5.810;2023-03-03T12:40:53;9.7;47.8
78514;SHT31;67814;51.976;5.810;2023-03-03T12:43:38;9.7;48.0
78514;SHT31;67814;51.976;5.810;2023-03-03T12:46:19;9.7;48.5
78514;SHT31;67814;51.976;5.810;2023-03-03T12:48:50;9.8;48.1
78514;SHT31;67814;51.976;5.810;2023-03-03T12:51:33;9.8;48.1
78514;SHT31;67814;51.976;5.810;2023-03-03T12:54:13;9.8;47.7
78514;SHT31;67814;51.976;5.810;2023-03-03T12:56:54;9.9;46.6
78514;SHT31;67814;51.976;5.810;2023-03-03T12:59:35;10.0;46.5
78514;SHT31;67814;51.976;5.810;2023-03-03T13:02:41;10.0;46.2
78514;SHT31;67814;51.976;5.810;2023-03-03T13:05:21;10.0;46.3
78514;SHT31;67814;51.976;5.810;2023-03-03T13:08:04;10.1;47.1
78514;SHT31;67814;51.976;5.810;2023-03-03T13:10:41;10.2;46.5
78514;SHT31;67814;51.976;5.810;2023-03-03T13:13:19;10.3;45.4
78514;SHT31;67814;51.976;5.810;2023-03-03T13:16:01;10.3;43.2
78514;SHT31;67814;51.976;5.810;2023-03-03T13:18:46;10.3;43.0
78514;SHT31;67814;51.976;5.810;2023-03-03T13:21:22;10.4;43.2
78514;SHT31;67814;51.976;5.810;2023-03-03T13:23:58;10.4;43.7
78514;SHT31;67814;51.976;5.810;2023-03-03T13:26:34;10.4;44.1
78514;SHT31;67814;51.976;5.810;2023-03-03T13:29:14;10.4;43.9
78514;SHT31;67814;51.976;5.810;2023-03-03T13:31:53;10.4;43.4
78514;SHT31;67814;51.976;5.810;2023-03-03T13:34:36;10.5;44.3
78514;SHT31;67814;51.976;5.810;2023-03-03T13:37:14;10.5;44.2
78514;SHT31;67814;51.976;5.810;2023-03-03T13:39:55;10.6;44.9
78514;SHT31;67814;51.976;5.810;2023-03-03T13:42:35;10.6;44.7
78514;SHT31;67814;51.976;5.810;2023-03-03T13:45:19;10.8;44.2
78514;SHT31;67814;51.976;5.810;2023-03-03T13:47:57;10.9;44.0
78514;SHT31;67814;51.976;5.810;2023-03-03T13:50:39;11.0;44.2
78514;SHT31;67814;51.976;5.810;2023-03-03T13:53:36;11.1;44.3
78514;SHT31;67814;51.976;5.810;2023-03-03T13:56:23;11.1;44.6
78514;SHT31;67814;51.976;5.810;2023-03-03T13:59:05;11.2;44.6
78514;SHT31;67814;51.976;5.810;2023-03-03T14:01:49;11.2;44.7
78514;SHT31;67814;51.976;5.810;2023-03-03T14:04:37;11.2;44.3
78514;SHT31;67814;51.976;5.810;2023-03-03T14:07:20;11.2;44.6
78514;SHT31;67814;51.976;5.810;2023-03-03T14:10:01;11.2;44.6
78514;SHT31;67814;51.976;5.810;2023-03-03T14:12:39;11.3;44.5
78514;SHT31;67814;51.976;5.810;2023-03-03T14:15:17;11.3;44.5
78514;SHT31;67814;51.976;5.810;2023-03-03T14:18:01;11.3;45.0
78514;SHT31;67814;51.976;5.810;2023-03-03T14:20:36;11.3;44.5
78514;SHT31;67814;51.976;5.810;2023-03-03T14:23:13;11.3;44.9
78514;SHT31;67814;51.976;5.810;2023-03-03T14:25:53;11.3;44.8
78514;SHT31;67814;51.976;5.810;2023-03-03T14:28:24;11.3;44.9
78514;SHT31;67814;51.976;5.810;2023-03-03T14:30:56;11.3;44.0
78514;SHT31;67814;51.976;5.810;2023-03-03T14:33:28;11.2;43.7
78514;SHT31;67814;51.976;5.810;2023-03-03T14:36:04;11.2;43.2
78514;SHT31;67814;51.976;5.810;2023-03-03T14:38:40;11.1;43.2
78514;SHT31;67814;51.976;5.810;2023-03-03T14:41:17;11.1;43.6
78514;SHT31;67814;51.976;5.810;2023-03-03T14:43:58;11.1;43.4
78514;SHT31;67814;51.976;5.810;2023-03-03T14:46:34;11.1;44.7
78514;SHT31;67814;51.976;5.810;2023-03-03T14:49:12;11.1;44.6
78514;SHT31;67814;51.976;5.810;2023-03-03T14:51:43;11.2;44.8
78514;SHT31;67814;51.976;5.810;2023-03-03T14:54:20;11.2;44.6
78514;SHT31;67814;51.976;5.810;2023-03-03T14:56:57;11.3;44.2
78514;SHT31;67814;51.976;5.810;2023-03-03T14:59:27;11.3;44.4
78514;SHT31;67814;51.976;5.810;2023-03-03T15:02:06;11.2;44.3
78514;SHT31;67814;51.976;5.810;2023-03-03T15:04:39;11.2;44.3
78514;SHT31;67814;51.976;5.810;2023-03-03T15:07:22;11.2;44.4
78514;SHT31;67814;51.976;5.810;2023-03-03T15:09:54;11.1;44.5
78514;SHT31;67814;51.976;5.810;2023-03-03T15:12:32;11.1;44.5
78514;SHT31;67814;51.976;5.810;2023-03-03T15:15:16;11.1;44.3
78514;SHT31;67814;51.976;5.810;2023-03-03T15:17:56;11.1;44.2
78514;SHT31;67814;51.976;5.810;2023-03-03T15:20:41;11.0;44.1
78514;SHT31;67814;51.976;5.810;2023-03-03T15:23:39;11.0;44.3
78514;SHT31;67814;51.976;5.810;2023-03-03T15:26:21;11.0;43.9
78514;SHT31;67814;51.976;5.810;2023-03-03T15:28:59;11.0;44.5
78514;SHT31;67814;51.976;5.810;2023-03-03T15:31:39;11.0;45.2
78514;SHT31;67814;51.976;5.810;2023-03-03T15:34:23;11.0;45.9
78514;SHT31;67814;51.976;5.810;2023-03-03T15:37:01;11.0;46.1
78514;SHT31;67814;51.976;5.810;2023-03-03T15:39:38;10.9;46.4
78514;SHT31;67814;51.976;5.810;2023-03-03T15:42:20;10.9;46.6
78514;SHT31;67814;51.976;5.810;2023-03-03T15:45:00;10.9;46.5
78514;SHT31;67814;51.976;5.810;2023-03-03T15:47:46;10.9;46.4
78514;SHT31;67814;51.976;5.810;2023-03-03T15:50:27;10.8;46.2
78514;SHT31;67814;51.976;5.810;2023-03-03T15:53:08;10.8;46.2
78514;SHT31;67814;51.976;5.810;2023-03-03T15:55:48;10.7;46.0
78514;SHT31;67814;51.976;5.810;2023-03-03T15:58:38;10.6;46.3
78514;SHT31;67814;51.976;5.810;2023-03-03T16:01:16;10.5;47.1
78514;SHT31;67814;51.976;5.810;2023-03-03T16:03:54;10.5;46.1
78514;SHT31;67814;51.976;5.810;2023-03-03T16:06:30;10.5;46.2
78514;SHT31;67814;51.976;5.810;2023-03-03T16:09:15;10.5;45.8
78514;SHT31;67814;51.976;5.810;2023-03-03T16:11:51;10.5;46.0
78514;SHT31;67814;51.976;5.810;2023-03-03T16:14:40;10.5;45.5
78514;SHT31;67814;51.976;5.810;2023-03-03T16:17:24;10.5;45.9
78514;SHT31;67814;51.976;5.810;2023-03-03T16:22:51;10.5;46.1
78514;SHT31;67814;51.976;5.810;2023-03-03T16:25:53;10.5;46.4
78514;SHT31;67814;51.976;5.810;2023-03-03T16:28:37;10.4;46.5
78514;SHT31;67814;51.976;5.810;2023-03-03T16:31:12;10.4;46.6
78514;SHT31;67814;51.976;5.810;2023-03-03T16:33:51;10.4;46.9
78514;SHT31;67814;51.976;5.810;2023-03-03T16:36:34;10.4;46.6
78514;SHT31;67814;51.976;5.810;2023-03-03T16:39:11;10.3;46.8
78514;SHT31;67814;51.976;5.810;2023-03-03T16:41:53;10.3;47.0
78514;SHT31;67814;51.976;5.810;2023-03-03T16:44:36;10.2;47.2
78514;SHT31;67814;51.976;5.810;2023-03-03T16:47:22;10.2;47.2
78514;SHT31;67814;51.976;5.810;2023-03-03T16:50:06;10.2;46.6
78514;SHT31;67814;51.976;5.810;2023-03-03T16:52:42;10.1;46.7
78514;SHT31;67814;51.976;5.810;2023-03-03T16:55:16;10.1;47.2
78514;SHT31;67814;51.976;5.810;2023-03-03T16:57:58;10.0;47.5
78514;SHT31;67814;51.976;5.810;2023-03-03T17:00:39;10.0;47.5
78514;SHT31;67814;51.976;5.810;2023-03-03T17:03:33;9.9;48.0
78514;SHT31;67814;51.976;5.810;2023-03-03T17:06:10;9.8;47.9
78514;SHT31;67814;51.976;5.810;2023-03-03T17:09:01;9.8;48.5
78514;SHT31;67814;51.976;5.810;2023-03-03T17:11:44;9.7;48.2
78514;SHT31;67814;51.976;5.810;2023-03-03T17:14:54;9.6;48.3
78514;SHT31;67814;51.976;5.810;2023-03-03T17:17:35;9.5;48.9
78514;SHT31;67814;51.976;5.810;2023-03-03T17:20:28;9.5;48.8
78514;SHT31;67814;51.976;5.810;2023-03-03T17:23:17;9.5;48.7
78514;SHT31;67814;51.976;5.810;2023-03-03T17:26:00;9.4;48.9
78514;SHT31;67814;51.976;5.810;2023-03-03T17:28:45;9.3;49.5
78514;SHT31;67814;51.976;5.810;2023-03-03T17:31:25;9.3;49.4